KBWD/BWD METAR and TAF weather

Enter ICAO airport designator
Station Type Date Time Source
KBWD METAR 2020/06/06 13:15 UTC NOAA

KBWD 061315Z AUTO 20004KT 10SM CLR 24/21 A2999 RMK AO1


Station Type Date Time Source
KBWD Decoded METAR 2020/06/06 13:15 UTC NOAA

Brownwood, Brownwood Regional Airport, TX, United States (KBWD) 31-48N 098-57W
Jun 06, 2020 - 09:15 AM EDT / 2020.06.06 1315 UTC
Wind: from the SSW (200 degrees) at 5 MPH (4 KT):0
Visibility: 10 mile(s):0
Sky conditions: clear
Temperature: 75 F (24 C)
Dew Point: 69 F (21 C)
Relative Humidity: 83%
Pressure (altimeter): 29.99 in. Hg (1015 hPa)
ob: KBWD 061315Z AUTO 20004KT 10SM CLR 24/21 A2999 RMK AO1
cycle: 13

Station Type Date Time Source
KBWD TAF UTC NOAA

Error!

Example: see airport list